sensor_id;sensor_type;location;lat;lon;timestamp;P1;durP1;ratioP1;P2;durP2;ratioP2
355;SDS011;62514;48.112;11.566;2024-01-30T00:02:12;178.43;;;40.90;;
355;SDS011;62514;48.112;11.566;2024-01-30T00:04:38;168.53;;;38.37;;
355;SDS011;62514;48.112;11.566;2024-01-30T00:07:04;220.83;;;48.97;;
355;SDS011;62514;48.112;11.566;2024-01-30T00:09:30;168.10;;;39.33;;
355;SDS011;62514;48.112;11.566;2024-01-30T00:11:57;194.70;;;42.97;;
355;SDS011;62514;48.112;11.566;2024-01-30T00:14:23;141.13;;;32.83;;
355;SDS011;62514;48.112;11.566;2024-01-30T00:16:49;57.37;;;14.40;;
355;SDS011;62514;48.112;11.566;2024-01-30T00:19:15;158.00;;;37.30;;
355;SDS011;62514;48.112;11.566;2024-01-30T00:21:41;203.77;;;45.40;;
355;SDS011;62514;48.112;11.566;2024-01-30T00:24:07;129.30;;;30.40;;
355;SDS011;62514;48.112;11.566;2024-01-30T00:26:33;55.97;;;14.57;;
355;SDS011;62514;48.112;11.566;2024-01-30T00:28:59;90.43;;;21.80;;
355;SDS011;62514;48.112;11.566;2024-01-30T00:31:25;199.53;;;44.77;;
355;SDS011;62514;48.112;11.566;2024-01-30T00:33:51;269.47;;;60.30;;
355;SDS011;62514;48.112;11.566;2024-01-30T00:36:17;43.17;;;11.00;;
355;SDS011;62514;48.112;11.566;2024-01-30T00:38:43;277.63;;;63.23;;
355;SDS011;62514;48.112;11.566;2024-01-30T00:41:09;48.53;;;12.50;;
355;SDS011;62514;48.112;11.566;2024-01-30T00:43:35;88.37;;;21.43;;
355;SDS011;62514;48.112;11.566;2024-01-30T00:46:01;173.47;;;39.37;;
355;SDS011;62514;48.112;11.566;2024-01-30T00:48:28;31.67;;;8.03;;
355;SDS011;62514;48.112;11.566;2024-01-30T00:50:54;137.30;;;31.23;;
355;SDS011;62514;48.112;11.566;2024-01-30T00:53:20;177.00;;;40.63;;
355;SDS011;62514;48.112;11.566;2024-01-30T00:55:46;176.77;;;40.13;;
355;SDS011;62514;48.112;11.566;2024-01-30T00:58:12;263.77;;;61.17;;
355;SDS011;62514;48.112;11.566;2024-01-30T01:00:38;116.60;;;26.87;;
355;SDS011;62514;48.112;11.566;2024-01-30T01:03:04;15.20;;;4.53;;
355;SDS011;62514;48.112;11.566;2024-01-30T01:05:30;112.73;;;26.53;;
355;SDS011;62514;48.112;11.566;2024-01-30T01:07:56;53.93;;;12.77;;
355;SDS011;62514;48.112;11.566;2024-01-30T01:10:22;193.43;;;44.53;;
355;SDS011;62514;48.112;11.566;2024-01-30T01:12:48;24.53;;;5.23;;
355;SDS011;62514;48.112;11.566;2024-01-30T01:15:15;13.97;;;3.73;;
355;SDS011;62514;48.112;11.566;2024-01-30T01:17:47;37.00;;;9.87;;
355;SDS011;62514;48.112;11.566;2024-01-30T01:20:12;67.57;;;17.07;;
355;SDS011;62514;48.112;11.566;2024-01-30T01:22:39;39.63;;;10.60;;
355;SDS011;62514;48.112;11.566;2024-01-30T01:25:06;10.60;;;3.60;;
355;SDS011;62514;48.112;11.566;2024-01-30T01:27:35;198.73;;;47.57;;
355;SDS011;62514;48.112;11.566;2024-01-30T01:30:07;15.63;;;4.70;;
355;SDS011;62514;48.112;11.566;2024-01-30T01:32:37;168.10;;;39.80;;
355;SDS011;62514;48.112;11.566;2024-01-30T01:35:04;199.57;;;45.47;;
355;SDS011;62514;48.112;11.566;2024-01-30T01:37:31;113.63;;;26.37;;
355;SDS011;62514;48.112;11.566;2024-01-30T01:39:57;93.83;;;22.70;;
355;SDS011;62514;48.112;11.566;2024-01-30T01:42:22;185.83;;;42.30;;
355;SDS011;62514;48.112;11.566;2024-01-30T01:44:48;140.37;;;34.00;;
355;SDS011;62514;48.112;11.566;2024-01-30T01:47:14;37.03;;;9.73;;
355;SDS011;62514;48.112;11.566;2024-01-30T01:49:40;174.17;;;44.37;;
355;SDS011;62514;48.112;11.566;2024-01-30T01:52:06;106.17;;;24.77;;
355;SDS011;62514;48.112;11.566;2024-01-30T01:54:32;98.07;;;23.83;;
355;SDS011;62514;48.112;11.566;2024-01-30T01:56:59;62.20;;;15.33;;
355;SDS011;62514;48.112;11.566;2024-01-30T01:59:25;178.10;;;41.63;;
355;SDS011;62514;48.112;11.566;2024-01-30T02:01:52;111.87;;;26.97;;
355;SDS011;62514;48.112;11.566;2024-01-30T02:04:21;116.03;;;27.23;;
355;SDS011;62514;48.112;11.566;2024-01-30T02:06:46;172.17;;;39.77;;
355;SDS011;62514;48.112;11.566;2024-01-30T02:09:12;34.57;;;9.30;;
355;SDS011;62514;48.112;11.566;2024-01-30T02:11:38;258.07;;;58.30;;
355;SDS011;62514;48.112;11.566;2024-01-30T02:14:06;154.40;;;36.43;;
355;SDS011;62514;48.112;11.566;2024-01-30T02:16:32;102.60;;;24.50;;
355;SDS011;62514;48.112;11.566;2024-01-30T02:18:58;114.47;;;26.63;;
355;SDS011;62514;48.112;11.566;2024-01-30T02:21:24;100.27;;;24.00;;
355;SDS011;62514;48.112;11.566;2024-01-30T02:23:50;121.63;;;28.63;;
355;SDS011;62514;48.112;11.566;2024-01-30T02:26:17;92.23;;;22.57;;
355;SDS011;62514;48.112;11.566;2024-01-30T02:28:43;9.47;;;2.70;;
355;SDS011;62514;48.112;11.566;2024-01-30T02:31:09;13.33;;;3.40;;
355;SDS011;62514;48.112;11.566;2024-01-30T02:33:35;9.67;;;2.63;;
355;SDS011;62514;48.112;11.566;2024-01-30T02:36:01;10.33;;;3.10;;
355;SDS011;62514;48.112;11.566;2024-01-30T02:38:27;11.40;;;3.03;;
355;SDS011;62514;48.112;11.566;2024-01-30T02:40:54;10.77;;;2.83;;
355;SDS011;62514;48.112;11.566;2024-01-30T02:43:20;23.03;;;6.17;;
355;SDS011;62514;48.112;11.566;2024-01-30T02:45:46;27.77;;;7.73;;
355;SDS011;62514;48.112;11.566;2024-01-30T02:48:12;104.43;;;26.10;;
355;SDS011;62514;48.112;11.566;2024-01-30T02:50:38;132.30;;;31.27;;
355;SDS011;62514;48.112;11.566;2024-01-30T02:53:04;85.47;;;21.83;;
355;SDS011;62514;48.112;11.566;2024-01-30T02:55:30;27.27;;;7.43;;
355;SDS011;62514;48.112;11.566;2024-01-30T02:57:56;80.73;;;19.97;;
355;SDS011;62514;48.112;11.566;2024-01-30T03:00:22;85.50;;;20.53;;
355;SDS011;62514;48.112;11.566;2024-01-30T03:02:47;116.47;;;30.47;;
355;SDS011;62514;48.112;11.566;2024-01-30T03:05:13;20.90;;;6.07;;
355;SDS011;62514;48.112;11.566;2024-01-30T03:07:39;82.10;;;20.50;;
355;SDS011;62514;48.112;11.566;2024-01-30T03:10:05;24.70;;;6.53;;
355;SDS011;62514;48.112;11.566;2024-01-30T03:12:32;60.57;;;15.97;;
355;SDS011;62514;48.112;11.566;2024-01-30T03:14:58;166.47;;;40.07;;
355;SDS011;62514;48.112;11.566;2024-01-30T03:17:24;151.47;;;36.57;;
355;SDS011;62514;48.112;11.566;2024-01-30T03:19:50;23.60;;;5.30;;
355;SDS011;62514;48.112;11.566;2024-01-30T03:22:16;14.93;;;4.03;;
355;SDS011;62514;48.112;11.566;2024-01-30T03:24:42;11.03;;;3.00;;
355;SDS011;62514;48.112;11.566;2024-01-30T03:27:08;8.27;;;2.37;;
355;SDS011;62514;48.112;11.566;2024-01-30T03:29:35;35.70;;;9.63;;
355;SDS011;62514;48.112;11.566;2024-01-30T03:32:01;203.77;;;47.20;;
355;SDS011;62514;48.112;11.566;2024-01-30T03:34:27;164.93;;;38.43;;
355;SDS011;62514;48.112;11.566;2024-01-30T03:36:53;140.17;;;35.23;;
355;SDS011;62514;48.112;11.566;2024-01-30T03:39:19;98.70;;;23.87;;
355;SDS011;62514;48.112;11.566;2024-01-30T03:41:45;8.27;;;2.83;;
355;SDS011;62514;48.112;11.566;2024-01-30T03:44:11;8.47;;;2.63;;
355;SDS011;62514;48.112;11.566;2024-01-30T03:46:37;12.87;;;4.10;;
355;SDS011;62514;48.112;11.566;2024-01-30T03:49:03;10.70;;;3.43;;
355;SDS011;62514;48.112;11.566;2024-01-30T03:51:29;20.73;;;4.33;;
355;SDS011;62514;48.112;11.566;2024-01-30T03:53:55;14.93;;;3.97;;
355;SDS011;62514;48.112;11.566;2024-01-30T03:56:20;13.87;;;3.60;;
355;SDS011;62514;48.112;11.566;2024-01-30T03:58:46;11.83;;;3.37;;
355;SDS011;62514;48.112;11.566;2024-01-30T04:01:15;9.37;;;2.57;;
355;SDS011;62514;48.112;11.566;2024-01-30T04:03:42;15.03;;;4.20;;
355;SDS011;62514;48.112;11.566;2024-01-30T04:06:09;10.80;;;3.30;;
355;SDS011;62514;48.112;11.566;2024-01-30T04:08:36;11.63;;;6.57;;
355;SDS011;62514;48.112;11.566;2024-01-30T04:11:05;8.87;;;2.87;;
355;SDS011;62514;48.112;11.566;2024-01-30T04:13:32;12.43;;;2.87;;
355;SDS011;62514;48.112;11.566;2024-01-30T04:15:59;8.37;;;2.60;;
355;SDS011;62514;48.112;11.566;2024-01-30T04:18:27;9.60;;;3.17;;
355;SDS011;62514;48.112;11.566;2024-01-30T04:20:53;11.23;;;3.30;;
355;SDS011;62514;48.112;11.566;2024-01-30T04:23:19;7.57;;;2.53;;
355;SDS011;62514;48.112;11.566;2024-01-30T04:25:45;15.43;;;3.80;;
355;SDS011;62514;48.112;11.566;2024-01-30T04:28:11;13.20;;;7.43;;
355;SDS011;62514;48.112;11.566;2024-01-30T04:30:38;9.90;;;3.03;;
355;SDS011;62514;48.112;11.566;2024-01-30T04:33:04;14.33;;;4.57;;
355;SDS011;62514;48.112;11.566;2024-01-30T04:35:30;9.30;;;2.93;;
355;SDS011;62514;48.112;11.566;2024-01-30T04:37:56;5.80;;;2.30;;
355;SDS011;62514;48.112;11.566;2024-01-30T04:40:22;7.47;;;2.40;;
355;SDS011;62514;48.112;11.566;2024-01-30T04:42:48;19.57;;;4.77;;
355;SDS011;62514;48.112;11.566;2024-01-30T04:45:14;11.00;;;3.30;;
355;SDS011;62514;48.112;11.566;2024-01-30T04:47:40;8.80;;;2.67;;
355;SDS011;62514;48.112;11.566;2024-01-30T04:50:06;15.10;;;3.43;;
355;SDS011;62514;48.112;11.566;2024-01-30T04:52:34;5.80;;;1.93;;
355;SDS011;62514;48.112;11.566;2024-01-30T04:55:00;12.30;;;3.17;;
355;SDS011;62514;48.112;11.566;2024-01-30T04:57:26;20.60;;;5.23;;
355;SDS011;62514;48.112;11.566;2024-01-30T04:59:55;10.93;;;2.93;;
355;SDS011;62514;48.112;11.566;2024-01-30T05:02:21;4.93;;;2.00;;
355;SDS011;62514;48.112;11.566;2024-01-30T05:04:47;21.57;;;5.60;;
355;SDS011;62514;48.112;11.566;2024-01-30T05:07:13;9.13;;;3.20;;
355;SDS011;62514;48.112;11.566;2024-01-30T05:09:39;16.23;;;4.37;;
355;SDS011;62514;48.112;11.566;2024-01-30T05:12:05;10.83;;;2.90;;
355;SDS011;62514;48.112;11.566;2024-01-30T05:14:30;11.40;;;3.30;;
355;SDS011;62514;48.112;11.566;2024-01-30T05:16:56;8.20;;;2.33;;
355;SDS011;62514;48.112;11.566;2024-01-30T05:19:22;11.80;;;3.10;;
355;SDS011;62514;48.112;11.566;2024-01-30T05:21:49;12.83;;;3.83;;
355;SDS011;62514;48.112;11.566;2024-01-30T05:24:15;9.67;;;2.70;;
355;SDS011;62514;48.112;11.566;2024-01-30T05:26:41;8.93;;;2.70;;
355;SDS011;62514;48.112;11.566;2024-01-30T05:29:07;14.03;;;4.23;;
355;SDS011;62514;48.112;11.566;2024-01-30T05:31:33;10.83;;;2.83;;
355;SDS011;62514;48.112;11.566;2024-01-30T05:34:00;17.23;;;4.10;;
355;SDS011;62514;48.112;11.566;2024-01-30T05:36:26;9.90;;;2.67;;
355;SDS011;62514;48.112;11.566;2024-01-30T05:38:52;16.93;;;4.93;;
355;SDS011;62514;48.112;11.566;2024-01-30T05:41:18;8.37;;;2.83;;
355;SDS011;62514;48.112;11.566;2024-01-30T05:43:44;14.50;;;3.90;;
355;SDS011;62514;48.112;11.566;2024-01-30T05:46:10;9.47;;;2.80;;
355;SDS011;62514;48.112;11.566;2024-01-30T05:48:36;6.73;;;3.73;;
355;SDS011;62514;48.112;11.566;2024-01-30T05:51:02;7.20;;;2.30;;
355;SDS011;62514;48.112;11.566;2024-01-30T05:53:29;25.67;;;8.00;;
355;SDS011;62514;48.112;11.566;2024-01-30T05:55:55;103.60;;;25.70;;
355;SDS011;62514;48.112;11.566;2024-01-30T05:58:21;113.10;;;26.87;;
355;SDS011;62514;48.112;11.566;2024-01-30T06:00:47;94.60;;;23.63;;
355;SDS011;62514;48.112;11.566;2024-01-30T06:03:13;248.67;;;58.00;;
355;SDS011;62514;48.112;11.566;2024-01-30T06:05:39;152.93;;;36.30;;
355;SDS011;62514;48.112;11.566;2024-01-30T06:08:05;85.00;;;21.17;;
355;SDS011;62514;48.112;11.566;2024-01-30T06:10:31;158.33;;;37.30;;
355;SDS011;62514;48.112;11.566;2024-01-30T06:12:57;199.83;;;46.23;;
355;SDS011;62514;48.112;11.566;2024-01-30T06:15:23;121.47;;;28.33;;
355;SDS011;62514;48.112;11.566;2024-01-30T06:17:49;249.73;;;55.30;;
355;SDS011;62514;48.112;11.566;2024-01-30T06:20:14;255.50;;;57.50;;
355;SDS011;62514;48.112;11.566;2024-01-30T06:22:41;251.27;;;56.63;;
355;SDS011;62514;48.112;11.566;2024-01-30T06:25:07;90.03;;;21.57;;
355;SDS011;62514;48.112;11.566;2024-01-30T06:27:33;46.17;;;12.60;;
355;SDS011;62514;48.112;11.566;2024-01-30T06:29:59;145.13;;;34.93;;
355;SDS011;62514;48.112;11.566;2024-01-30T06:32:25;170.20;;;39.97;;
355;SDS011;62514;48.112;11.566;2024-01-30T06:34:51;36.30;;;10.53;;
355;SDS011;62514;48.112;11.566;2024-01-30T06:37:17;200.30;;;46.47;;
355;SDS011;62514;48.112;11.566;2024-01-30T06:39:42;93.20;;;22.67;;
355;SDS011;62514;48.112;11.566;2024-01-30T06:42:09;106.87;;;25.33;;
355;SDS011;62514;48.112;11.566;2024-01-30T06:44:35;53.93;;;14.47;;
355;SDS011;62514;48.112;11.566;2024-01-30T06:47:01;126.03;;;31.00;;
355;SDS011;62514;48.112;11.566;2024-01-30T06:49:27;132.03;;;32.27;;
355;SDS011;62514;48.112;11.566;2024-01-30T06:51:52;102.33;;;23.80;;
355;SDS011;62514;48.112;11.566;2024-01-30T06:54:18;10.27;;;2.93;;
355;SDS011;62514;48.112;11.566;2024-01-30T06:56:44;80.13;;;20.13;;
355;SDS011;62514;48.112;11.566;2024-01-30T06:59:10;7.60;;;2.50;;
355;SDS011;62514;48.112;11.566;2024-01-30T07:01:36;110.07;;;26.30;;
355;SDS011;62514;48.112;11.566;2024-01-30T07:04:02;48.93;;;12.83;;
355;SDS011;62514;48.112;11.566;2024-01-30T07:06:28;131.13;;;31.07;;
355;SDS011;62514;48.112;11.566;2024-01-30T07:08:54;36.40;;;10.40;;
355;SDS011;62514;48.112;11.566;2024-01-30T07:11:20;72.93;;;18.53;;
355;SDS011;62514;48.112;11.566;2024-01-30T07:13:50;104.63;;;25.50;;
355;SDS011;62514;48.112;11.566;2024-01-30T07:16:16;122.23;;;29.13;;
355;SDS011;62514;48.112;11.566;2024-01-30T07:18:43;149.37;;;35.10;;
355;SDS011;62514;48.112;11.566;2024-01-30T07:21:09;84.53;;;20.63;;
355;SDS011;62514;48.112;11.566;2024-01-30T07:23:35;137.47;;;32.60;;
355;SDS011;62514;48.112;11.566;2024-01-30T07:26:04;187.87;;;43.20;;
355;SDS011;62514;48.112;11.566;2024-01-30T07:28:32;232.53;;;53.30;;
355;SDS011;62514;48.112;11.566;2024-01-30T07:30:58;88.23;;;21.37;;
355;SDS011;62514;48.112;11.566;2024-01-30T07:33:24;222.63;;;50.17;;
355;SDS011;62514;48.112;11.566;2024-01-30T07:35:51;110.30;;;25.83;;
355;SDS011;62514;48.112;11.566;2024-01-30T07:38:18;100.60;;;25.07;;
355;SDS011;62514;48.112;11.566;2024-01-30T07:40:44;155.47;;;37.10;;
355;SDS011;62514;48.112;11.566;2024-01-30T07:43:10;289.60;;;65.27;;
355;SDS011;62514;48.112;11.566;2024-01-30T07:45:36;176.87;;;39.33;;
355;SDS011;62514;48.112;11.566;2024-01-30T07:48:04;297.93;;;64.93;;
355;SDS011;62514;48.112;11.566;2024-01-30T07:50:31;272.53;;;60.90;;
355;SDS011;62514;48.112;11.566;2024-01-30T07:52:59;179.93;;;39.70;;
355;SDS011;62514;48.112;11.566;2024-01-30T07:55:25;305.70;;;66.90;;
355;SDS011;62514;48.112;11.566;2024-01-30T07:57:54;257.17;;;57.63;;
355;SDS011;62514;48.112;11.566;2024-01-30T08:00:21;316.97;;;66.97;;
355;SDS011;62514;48.112;11.566;2024-01-30T08:02:47;315.50;;;69.63;;
355;SDS011;62514;48.112;11.566;2024-01-30T08:05:13;314.37;;;67.07;;
355;SDS011;62514;48.112;11.566;2024-01-30T08:07:43;185.53;;;40.63;;
355;SDS011;62514;48.112;11.566;2024-01-30T08:10:11;323.73;;;70.53;;
355;SDS011;62514;48.112;11.566;2024-01-30T08:12:37;247.70;;;52.57;;
355;SDS011;62514;48.112;11.566;2024-01-30T08:15:04;255.60;;;54.17;;
355;SDS011;62514;48.112;11.566;2024-01-30T08:17:30;251.27;;;53.70;;
355;SDS011;62514;48.112;11.566;2024-01-30T08:19:56;255.40;;;53.60;;
355;SDS011;62514;48.112;11.566;2024-01-30T08:22:22;240.40;;;51.43;;
355;SDS011;62514;48.112;11.566;2024-01-30T08:24:48;336.90;;;72.70;;
355;SDS011;62514;48.112;11.566;2024-01-30T08:27:14;334.67;;;70.80;;
355;SDS011;62514;48.112;11.566;2024-01-30T08:29:40;154.73;;;38.93;;
355;SDS011;62514;48.112;11.566;2024-01-30T08:32:06;347.57;;;71.67;;
355;SDS011;62514;48.112;11.566;2024-01-30T08:34:33;223.00;;;46.93;;
355;SDS011;62514;48.112;11.566;2024-01-30T08:36:59;267.27;;;54.83;;
355;SDS011;62514;48.112;11.566;2024-01-30T08:39:25;268.80;;;56.07;;
355;SDS011;62514;48.112;11.566;2024-01-30T08:41:51;354.63;;;74.30;;
355;SDS011;62514;48.112;11.566;2024-01-30T08:44:17;354.43;;;71.17;;
355;SDS011;62514;48.112;11.566;2024-01-30T08:46:44;355.67;;;71.57;;
355;SDS011;62514;48.112;11.566;2024-01-30T08:49:10;363.80;;;75.10;;
355;SDS011;62514;48.112;11.566;2024-01-30T08:51:38;371.00;;;79.70;;
355;SDS011;62514;48.112;11.566;2024-01-30T08:54:05;364.53;;;72.27;;
355;SDS011;62514;48.112;11.566;2024-01-30T08:56:31;366.97;;;75.77;;
355;SDS011;62514;48.112;11.566;2024-01-30T08:58:57;378.33;;;77.87;;
355;SDS011;62514;48.112;11.566;2024-01-30T09:01:23;389.60;;;80.73;;
355;SDS011;62514;48.112;11.566;2024-01-30T09:03:50;312.43;;;65.67;;
355;SDS011;62514;48.112;11.566;2024-01-30T09:06:16;383.67;;;78.63;;
355;SDS011;62514;48.112;11.566;2024-01-30T09:08:42;388.20;;;81.53;;
355;SDS011;62514;48.112;11.566;2024-01-30T09:11:08;374.50;;;75.07;;
355;SDS011;62514;48.112;11.566;2024-01-30T09:13:35;389.87;;;81.27;;
355;SDS011;62514;48.112;11.566;2024-01-30T09:16:01;378.50;;;75.07;;
355;SDS011;62514;48.112;11.566;2024-01-30T09:18:27;383.37;;;77.33;;
355;SDS011;62514;48.112;11.566;2024-01-30T09:20:53;384.17;;;76.10;;
355;SDS011;62514;48.112;11.566;2024-01-30T09:23:19;383.13;;;76.57;;
355;SDS011;62514;48.112;11.566;2024-01-30T09:25:45;395.97;;;80.77;;
355;SDS011;62514;48.112;11.566;2024-01-30T09:28:11;384.47;;;76.47;;
355;SDS011;62514;48.112;11.566;2024-01-30T09:30:37;392.37;;;94.40;;
355;SDS011;62514;48.112;11.566;2024-01-30T09:33:04;386.97;;;76.53;;
355;SDS011;62514;48.112;11.566;2024-01-30T09:35:31;389.50;;;79.47;;
355;SDS011;62514;48.112;11.566;2024-01-30T09:37:57;391.30;;;78.30;;
355;SDS011;62514;48.112;11.566;2024-01-30T09:40:23;398.47;;;80.13;;
355;SDS011;62514;48.112;11.566;2024-01-30T09:42:50;406.87;;;82.27;;
355;SDS011;62514;48.112;11.566;2024-01-30T09:45:19;401.53;;;81.30;;
355;SDS011;62514;48.112;11.566;2024-01-30T09:47:49;405.37;;;83.03;;
355;SDS011;62514;48.112;11.566;2024-01-30T09:50:15;407.20;;;82.23;;
355;SDS011;62514;48.112;11.566;2024-01-30T09:52:45;412.17;;;88.07;;
355;SDS011;62514;48.112;11.566;2024-01-30T09:55:12;414.50;;;88.90;;
355;SDS011;62514;48.112;11.566;2024-01-30T09:57:38;423.70;;;93.40;;
355;SDS011;62514;48.112;11.566;2024-01-30T10:00:05;416.47;;;90.47;;
355;SDS011;62514;48.112;11.566;2024-01-30T10:02:35;420.77;;;94.00;;
355;SDS011;62514;48.112;11.566;2024-01-30T10:05:01;429.73;;;95.17;;
355;SDS011;62514;48.112;11.566;2024-01-30T10:07:27;429.50;;;94.90;;
355;SDS011;62514;48.112;11.566;2024-01-30T10:09:53;359.33;;;82.27;;
355;SDS011;62514;48.112;11.566;2024-01-30T10:12:22;440.63;;;103.13;;
355;SDS011;62514;48.112;11.566;2024-01-30T10:14:48;440.00;;;105.17;;
355;SDS011;62514;48.112;11.566;2024-01-30T10:17:14;435.23;;;107.23;;
355;SDS011;62514;48.112;11.566;2024-01-30T10:19:40;454.23;;;110.60;;
355;SDS011;62514;48.112;11.566;2024-01-30T10:22:07;448.90;;;115.27;;
355;SDS011;62514;48.112;11.566;2024-01-30T10:24:34;445.03;;;114.30;;
355;SDS011;62514;48.112;11.566;2024-01-30T10:27:01;451.30;;;117.97;;
355;SDS011;62514;48.112;11.566;2024-01-30T10:29:27;460.50;;;127.33;;
355;SDS011;62514;48.112;11.566;2024-01-30T10:32:03;463.80;;;128.23;;
355;SDS011;62514;48.112;11.566;2024-01-30T10:34:30;471.20;;;134.37;;
355;SDS011;62514;48.112;11.566;2024-01-30T10:37:05;468.87;;;132.07;;
355;SDS011;62514;48.112;11.566;2024-01-30T10:39:38;477.27;;;135.10;;
355;SDS011;62514;48.112;11.566;2024-01-30T10:42:06;462.53;;;131.43;;
355;SDS011;62514;48.112;11.566;2024-01-30T10:44:36;471.13;;;134.83;;
355;SDS011;62514;48.112;11.566;2024-01-30T10:47:13;470.20;;;137.10;;
355;SDS011;62514;48.112;11.566;2024-01-30T10:49:47;491.50;;;147.50;;
355;SDS011;62514;48.112;11.566;2024-01-30T10:52:14;482.10;;;147.43;;
355;SDS011;62514;48.112;11.566;2024-01-30T10:54:43;493.10;;;162.40;;
355;SDS011;62514;48.112;11.566;2024-01-30T10:57:10;507.70;;;170.10;;
355;SDS011;62514;48.112;11.566;2024-01-30T10:59:38;530.23;;;214.03;;
355;SDS011;62514;48.112;11.566;2024-01-30T11:02:04;537.93;;;243.17;;
355;SDS011;62514;48.112;11.566;2024-01-30T11:04:38;551.50;;;263.17;;
355;SDS011;62514;48.112;11.566;2024-01-30T11:07:19;538.43;;;259.67;;
355;SDS011;62514;48.112;11.566;2024-01-30T11:09:53;541.53;;;248.83;;
355;SDS011;62514;48.112;11.566;2024-01-30T11:12:29;522.37;;;230.93;;
355;SDS011;62514;48.112;11.566;2024-01-30T11:15:02;525.13;;;239.47;;
355;SDS011;62514;48.112;11.566;2024-01-30T11:17:41;541.07;;;266.10;;
355;SDS011;62514;48.112;11.566;2024-01-30T11:22:53;546.17;;;272.50;;
355;SDS011;62514;48.112;11.566;2024-01-30T11:25:20;531.47;;;267.87;;
355;SDS011;62514;48.112;11.566;2024-01-30T11:27:50;542.43;;;287.30;;
355;SDS011;62514;48.112;11.566;2024-01-30T11:30:21;543.50;;;291.77;;
355;SDS011;62514;48.112;11.566;2024-01-30T11:35:57;537.77;;;315.40;;
355;SDS011;62514;48.112;11.566;2024-01-30T11:38:27;558.77;;;349.20;;
355;SDS011;62514;48.112;11.566;2024-01-30T11:40:54;578.03;;;356.90;;
355;SDS011;62514;48.112;11.566;2024-01-30T11:43:23;552.13;;;345.17;;
355;SDS011;62514;48.112;11.566;2024-01-30T11:45:49;552.17;;;316.00;;
355;SDS011;62514;48.112;11.566;2024-01-30T11:48:15;546.70;;;311.13;;
355;SDS011;62514;48.112;11.566;2024-01-30T11:50:41;537.03;;;284.83;;
355;SDS011;62514;48.112;11.566;2024-01-30T11:53:09;537.10;;;273.00;;
355;SDS011;62514;48.112;11.566;2024-01-30T11:55:38;529.17;;;259.63;;
355;SDS011;62514;48.112;11.566;2024-01-30T11:58:04;542.37;;;271.87;;
355;SDS011;62514;48.112;11.566;2024-01-30T12:00:30;543.90;;;277.73;;
355;SDS011;62514;48.112;11.566;2024-01-30T12:02:58;531.83;;;267.20;;
355;SDS011;62514;48.112;11.566;2024-01-30T12:05:26;530.30;;;276.67;;
355;SDS011;62514;48.112;11.566;2024-01-30T12:07:52;541.77;;;289.87;;
355;SDS011;62514;48.112;11.566;2024-01-30T12:10:18;551.73;;;295.77;;
355;SDS011;62514;48.112;11.566;2024-01-30T12:12:51;563.23;;;324.27;;
355;SDS011;62514;48.112;11.566;2024-01-30T12:15:18;549.07;;;324.47;;
355;SDS011;62514;48.112;11.566;2024-01-30T12:17:46;558.77;;;346.33;;
355;SDS011;62514;48.112;11.566;2024-01-30T12:20:13;552.57;;;347.13;;
355;SDS011;62514;48.112;11.566;2024-01-30T12:22:47;560.97;;;376.70;;
355;SDS011;62514;48.112;11.566;2024-01-30T12:25:15;562.03;;;365.37;;
355;SDS011;62514;48.112;11.566;2024-01-30T12:27:49;548.33;;;325.50;;
355;SDS011;62514;48.112;11.566;2024-01-30T12:30:16;542.37;;;312.33;;
355;SDS011;62514;48.112;11.566;2024-01-30T12:32:44;544.90;;;304.67;;
355;SDS011;62514;48.112;11.566;2024-01-30T12:35:11;537.40;;;270.23;;
355;SDS011;62514;48.112;11.566;2024-01-30T12:37:42;546.43;;;282.67;;
355;SDS011;62514;48.112;11.566;2024-01-30T12:40:09;536.93;;;259.20;;
355;SDS011;62514;48.112;11.566;2024-01-30T12:42:38;523.93;;;246.37;;
355;SDS011;62514;48.112;11.566;2024-01-30T12:45:04;521.67;;;231.93;;
355;SDS011;62514;48.112;11.566;2024-01-30T12:47:31;527.13;;;224.00;;
355;SDS011;62514;48.112;11.566;2024-01-30T12:49:57;510.63;;;199.93;;
355;SDS011;62514;48.112;11.566;2024-01-30T12:52:23;516.37;;;215.17;;
355;SDS011;62514;48.112;11.566;2024-01-30T12:54:50;528.53;;;211.33;;
355;SDS011;62514;48.112;11.566;2024-01-30T12:57:17;517.73;;;218.93;;
355;SDS011;62514;48.112;11.566;2024-01-30T12:59:43;517.03;;;219.57;;
355;SDS011;62514;48.112;11.566;2024-01-30T13:02:11;528.27;;;227.87;;
355;SDS011;62514;48.112;11.566;2024-01-30T13:04:38;516.47;;;231.17;;
355;SDS011;62514;48.112;11.566;2024-01-30T13:07:04;518.73;;;229.77;;
355;SDS011;62514;48.112;11.566;2024-01-30T13:09:31;523.33;;;236.13;;
355;SDS011;62514;48.112;11.566;2024-01-30T13:11:57;517.23;;;243.73;;
355;SDS011;62514;48.112;11.566;2024-01-30T13:14:24;524.63;;;248.53;;
355;SDS011;62514;48.112;11.566;2024-01-30T13:16:50;526.50;;;267.53;;
355;SDS011;62514;48.112;11.566;2024-01-30T13:19:16;534.10;;;278.20;;
355;SDS011;62514;48.112;11.566;2024-01-30T13:21:42;542.30;;;300.73;;
355;SDS011;62514;48.112;11.566;2024-01-30T13:24:08;541.80;;;328.97;;
355;SDS011;62514;48.112;11.566;2024-01-30T13:26:35;541.03;;;324.37;;
355;SDS011;62514;48.112;11.566;2024-01-30T13:29:01;540.43;;;307.90;;
355;SDS011;62514;48.112;11.566;2024-01-30T13:31:27;532.27;;;295.17;;
355;SDS011;62514;48.112;11.566;2024-01-30T13:33:54;527.80;;;280.27;;
355;SDS011;62514;48.112;11.566;2024-01-30T13:36:20;530.27;;;284.57;;
355;SDS011;62514;48.112;11.566;2024-01-30T13:38:46;540.97;;;297.17;;
355;SDS011;62514;48.112;11.566;2024-01-30T13:41:12;552.37;;;287.93;;
355;SDS011;62514;48.112;11.566;2024-01-30T13:43:39;529.70;;;276.63;;
355;SDS011;62514;48.112;11.566;2024-01-30T13:46:05;532.07;;;273.97;;
355;SDS011;62514;48.112;11.566;2024-01-30T13:48:31;524.43;;;249.23;;
355;SDS011;62514;48.112;11.566;2024-01-30T13:50:57;519.13;;;238.37;;
355;SDS011;62514;48.112;11.566;2024-01-30T13:53:23;519.40;;;223.03;;
355;SDS011;62514;48.112;11.566;2024-01-30T13:55:49;509.53;;;199.60;;
355;SDS011;62514;48.112;11.566;2024-01-30T13:58:15;510.63;;;195.53;;
355;SDS011;62514;48.112;11.566;2024-01-30T14:00:40;510.23;;;211.53;;
355;SDS011;62514;48.112;11.566;2024-01-30T14:03:06;497.93;;;176.60;;
355;SDS011;62514;48.112;11.566;2024-01-30T14:05:32;477.50;;;169.43;;
355;SDS011;62514;48.112;11.566;2024-01-30T14:07:58;503.07;;;179.33;;
355;SDS011;62514;48.112;11.566;2024-01-30T14:10:25;496.60;;;170.17;;
355;SDS011;62514;48.112;11.566;2024-01-30T14:12:51;491.57;;;166.40;;
355;SDS011;62514;48.112;11.566;2024-01-30T14:15:17;494.13;;;174.03;;
355;SDS011;62514;48.112;11.566;2024-01-30T14:17:43;501.50;;;179.57;;
355;SDS011;62514;48.112;11.566;2024-01-30T14:20:14;492.73;;;174.67;;
355;SDS011;62514;48.112;11.566;2024-01-30T14:22:42;491.20;;;155.57;;
355;SDS011;62514;48.112;11.566;2024-01-30T14:25:08;510.57;;;160.70;;
355;SDS011;62514;48.112;11.566;2024-01-30T14:27:34;487.50;;;156.83;;
355;SDS011;62514;48.112;11.566;2024-01-30T14:30:01;479.63;;;143.70;;